Time;durP1;ratioP1;P1;durP2;ratioP2;P2;SDS_P1;SDS_P2;PMS_P1;PMS_P2;Temp;Humidity;BMP_temperature;BMP_pressure;BME280_temperature;BME280_humidity;BME280_pressure;Samples;Min_cycle;Max_cycle;Signal;HPM_P1;HPM_P2
2022/11/14 00:00:50;;;;;;;69.88;37.95;;;6.60;99.90;;;;;;5114071;28;20035;-75
2022/11/14 00:03:15;;;;;;;62.65;37.88;;;6.60;99.90;;;;;;5113482;28;20034;-74
2022/11/14 00:05:43;;;;;;;63.78;37.70;;;6.60;99.90;;;;;;5114105;28;20034;-75
2022/11/14 00:08:24;;;;;;;63.88;37.95;;;6.60;99.90;;;;;;5113926;28;20019;-75
2022/11/14 00:10:50;;;;;;;65.55;37.22;;;6.60;99.90;;;;;;5114125;28;20042;-75
2022/11/14 00:13:17;;;;;;;67.43;37.70;;;6.70;99.90;;;;;;5113708;28;20028;-74
2022/11/14 00:15:43;;;;;;;62.22;37.33;;;6.60;99.90;;;;;;5114080;28;20103;-75
2022/11/14 00:18:09;;;;;;;59.33;35.67;;;6.60;99.90;;;;;;5113621;28;20451;-75
2022/11/14 00:20:35;;;;;;;62.00;36.60;;;6.70;99.90;;;;;;5113893;28;20106;-75
2022/11/14 00:23:01;;;;;;;58.58;35.90;;;6.60;99.90;;;;;;5113425;28;20016;-75
2022/11/14 00:25:26;;;;;;;57.25;34.63;;;6.60;99.90;;;;;;5114034;28;20143;-75
2022/11/14 00:27:55;;;;;;;60.00;37.10;;;6.60;99.90;;;;;;5113798;28;20077;-75
2022/11/14 00:30:20;;;;;;;56.15;34.55;;;6.50;99.90;;;;;;5113632;28;20067;-73
2022/11/14 00:32:46;;;;;;;55.95;35.40;;;6.60;99.90;;;;;;5113218;28;20031;-73
2022/11/14 00:35:11;;;;;;;58.33;35.47;;;6.50;99.90;;;;;;5113012;28;20436;-74
2022/11/14 00:37:37;;;;;;;61.05;36.05;;;6.60;99.90;;;;;;5113656;28;20106;-75
2022/11/14 00:40:03;;;;;;;60.72;36.80;;;6.60;99.90;;;;;;5112815;28;20059;-75
2022/11/14 00:42:29;;;;;;;59.10;36.55;;;6.50;99.90;;;;;;5113832;28;20226;-75
2022/11/14 00:44:54;;;;;;;57.70;36.08;;;6.50;99.90;;;;;;5113186;28;20539;-74
2022/11/14 00:47:20;;;;;;;58.80;35.92;;;6.50;99.90;;;;;;5113534;28;20064;-75
2022/11/14 00:49:46;;;;;;;63.45;37.17;;;6.40;99.90;;;;;;5113445;28;20039;-73
2022/11/14 00:52:11;;;;;;;60.72;35.42;;;6.40;99.90;;;;;;5112626;28;20046;-73
2022/11/14 00:54:37;;;;;;;58.30;36.10;;;6.40;99.90;;;;;;5113567;28;20452;-74
2022/11/14 00:57:03;;;;;;;57.92;36.28;;;6.50;99.90;;;;;;5112756;28;20111;-74
2022/11/14 00:59:28;;;;;;;64.15;37.03;;;6.50;99.90;;;;;;5113279;28;20024;-74
2022/11/14 01:01:54;;;;;;;57.22;35.95;;;6.50;99.90;;;;;;5113077;28;20030;-74
2022/11/14 01:04:20;;;;;;;64.35;38.15;;;6.50;99.90;;;;;;5112101;28;20028;-74
2022/11/14 01:06:45;;;;;;;61.83;37.35;;;6.50;99.90;;;;;;5113142;28;20019;-74
2022/11/14 01:09:11;;;;;;;56.22;34.67;;;6.50;99.90;;;;;;5112014;28;20092;-73
2022/11/14 01:11:37;;;;;;;60.33;36.88;;;6.50;99.90;;;;;;5112551;28;20376;-74
2022/11/14 01:14:06;;;;;;;59.60;37.22;;;6.50;99.90;;;;;;5112260;28;20024;-73
2022/11/14 01:16:31;;;;;;;61.65;35.83;;;6.60;99.90;;;;;;5112814;28;20372;-74
2022/11/14 01:18:57;;;;;;;59.60;36.22;;;6.60;99.90;;;;;;5111855;28;20024;-73
2022/11/14 01:21:23;;;;;;;62.50;36.35;;;6.60;99.90;;;;;;5112834;28;20023;-74
2022/11/14 01:23:48;;;;;;;59.65;36.08;;;6.70;99.90;;;;;;5112484;28;20464;-74
2022/11/14 01:26:14;;;;;;;59.88;37.58;;;6.60;99.90;;;;;;5111920;28;20024;-74
2022/11/14 01:28:40;;;;;;;56.67;35.92;;;6.60;99.90;;;;;;5112609;28;20476;-73
2022/11/14 01:31:18;;;;;;;60.65;36.35;;;6.60;99.90;;;;;;5111990;28;20542;-73
2022/11/14 01:33:48;;;;;;;55.42;34.55;;;6.70;99.90;;;;;;5112585;28;20027;-74
2022/11/14 01:36:14;;;;;;;60.50;36.72;;;6.70;99.90;;;;;;5112421;28;20023;-74
2022/11/14 01:38:39;;;;;;;62.67;37.60;;;6.70;99.90;;;;;;5112190;28;20379;-74
2022/11/14 01:41:05;;;;;;;61.90;36.13;;;6.70;99.90;;;;;;5112311;28;20108;-73
2022/11/14 01:43:36;;;;;;;56.72;36.08;;;6.70;99.90;;;;;;5112507;28;20030;-74
2022/11/14 01:46:14;;;;;;;;;;;6.70;99.90;;;;;;5112457;28;20024;-74
2022/11/14 01:48:51;;;;;;;54.80;35.20;;;6.70;99.90;;;;;;5112356;28;19943;-74
2022/11/14 01:51:31;;;;;;;62.72;36.25;;;6.70;99.90;;;;;;5111177;28;20503;-74
2022/11/14 01:54:00;;;;;;;63.78;36.88;;;6.70;99.90;;;;;;5112754;28;20046;-74
2022/11/14 01:56:31;;;;;;;61.22;37.42;;;6.80;99.90;;;;;;5112355;28;20020;-74
2022/11/14 01:59:01;;;;;;;63.17;35.78;;;6.80;99.90;;;;;;5112004;28;20048;-74
2022/11/14 02:01:31;;;;;;;59.92;36.85;;;6.80;99.90;;;;;;5112641;28;20035;-74
2022/11/14 02:03:59;;;;;;;58.08;36.20;;;6.80;99.90;;;;;;5111242;28;20376;-74
2022/11/14 02:06:28;;;;;;;61.50;37.65;;;6.80;99.90;;;;;;5112531;28;20481;-74
2022/11/14 02:08:56;;;;;;;61.47;36.05;;;6.70;99.90;;;;;;5112120;28;20031;-74
2022/11/14 02:11:22;;;;;;;65.32;38.42;;;6.70;99.90;;;;;;5112380;28;20118;-74
2022/11/14 02:13:48;;;;;;;58.65;37.33;;;6.70;99.90;;;;;;5112433;28;20051;-74
2022/11/14 02:16:14;;;;;;;57.08;36.28;;;6.70;99.90;;;;;;5111597;28;20035;-74
2022/11/14 02:18:40;;;;;;;63.47;37.90;;;6.70;99.90;;;;;;5112341;28;20020;-73
2022/11/14 02:21:05;;;;;;;62.20;37.33;;;6.70;99.90;;;;;;5111924;28;20035;-72
2022/11/14 02:23:32;;;;;;;64.90;36.65;;;6.60;99.90;;;;;;5112407;28;20019;-73
2022/11/14 02:25:58;;;;;;;62.50;35.50;;;6.70;99.90;;;;;;5112163;28;20063;-73
2022/11/14 02:28:25;;;;;;;61.92;37.00;;;6.60;99.90;;;;;;5111789;28;20031;-73
2022/11/14 02:30:51;;;;;;;57.10;34.92;;;6.60;99.90;;;;;;5113120;28;20115;-74
2022/11/14 02:33:16;;;;;;;58.25;37.17;;;6.70;99.90;;;;;;5115762;28;20043;-75
2022/11/14 02:35:42;;;;;;;63.95;37.53;;;6.60;99.90;;;;;;5116263;28;20062;-73
2022/11/14 02:38:08;;;;;;;58.03;35.95;;;6.60;99.90;;;;;;5115335;28;20105;-75
2022/11/14 02:40:34;;;;;;;63.20;36.95;;;6.60;99.90;;;;;;5116012;28;20046;-75
2022/11/14 02:42:59;;;;;;;66.80;38.83;;;6.70;99.90;;;;;;5115649;28;20099;-75
2022/11/14 02:45:25;;;;;;;61.15;37.00;;;6.70;99.90;;;;;;5115204;28;20131;-75
2022/11/14 02:47:51;;;;;;;59.90;36.75;;;6.70;99.90;;;;;;5115579;28;20030;-75
2022/11/14 02:50:16;;;;;;;63.38;36.95;;;6.70;99.90;;;;;;5114890;28;20114;-75
2022/11/14 02:52:42;;;;;;;65.78;38.15;;;6.60;99.90;;;;;;5115935;28;20466;-75
2022/11/14 02:55:08;;;;;;;63.53;37.67;;;6.60;99.90;;;;;;5115374;28;20020;-73
2022/11/14 02:57:34;;;;;;;68.53;38.55;;;6.60;99.90;;;;;;5115507;28;20027;-74
2022/11/14 02:59:59;;;;;;;66.03;38.28;;;6.60;99.90;;;;;;5115733;28;20031;-74
2022/11/14 03:02:25;;;;;;;67.47;40.33;;;6.60;99.90;;;;;;5115018;28;20061;-74
2022/11/14 03:04:51;;;;;;;71.22;40.70;;;6.60;99.90;;;;;;5115024;28;20472;-74
2022/11/14 03:07:16;;;;;;;65.85;39.67;;;6.60;99.90;;;;;;5114879;28;20139;-74
2022/11/14 03:09:42;;;;;;;71.30;39.78;;;6.60;99.90;;;;;;5115301;28;20027;-74
2022/11/14 03:12:08;;;;;;;66.82;38.75;;;6.60;99.90;;;;;;5115174;28;20421;-73
2022/11/14 03:14:34;;;;;;;69.80;38.40;;;6.60;99.90;;;;;;5114838;28;20509;-75
2022/11/14 03:17:00;;;;;;;64.57;38.30;;;6.60;99.90;;;;;;5115293;28;20055;-75
2022/11/14 03:19:25;;;;;;;65.97;39.20;;;6.70;99.90;;;;;;5114860;28;20039;-73
2022/11/14 03:21:51;;;;;;;65.85;39.08;;;6.70;99.90;;;;;;5115132;28;20467;-73
2022/11/14 03:24:17;;;;;;;68.25;39.67;;;6.70;99.90;;;;;;5114742;28;20032;-73
2022/11/14 03:26:42;;;;;;;74.15;41.05;;;6.70;99.90;;;;;;5114914;28;20051;-73
2022/11/14 03:29:08;;;;;;;64.88;37.83;;;6.70;99.90;;;;;;5114473;28;20131;-73
2022/11/14 03:31:34;;;;;;;71.47;40.13;;;6.70;99.90;;;;;;5114061;28;20034;-73
2022/11/14 03:33:59;;;;;;;70.03;39.58;;;6.70;99.90;;;;;;5114595;28;20048;-74
2022/11/14 03:36:25;;;;;;;68.70;39.08;;;6.70;99.90;;;;;;5114329;28;20024;-75
2022/11/14 03:38:51;;;;;;;70.22;40.13;;;6.80;99.90;;;;;;5114941;28;20479;-75
2022/11/14 03:41:16;;;;;;;66.15;39.85;;;6.80;99.90;;;;;;5113869;28;20028;-73
2022/11/14 03:43:42;;;;;;;67.32;40.28;;;6.80;99.90;;;;;;5114332;28;20026;-73
2022/11/14 03:46:07;;;;;;;74.05;41.13;;;6.80;99.90;;;;;;5114404;28;20023;-73
2022/11/14 03:48:33;;;;;;;65.10;38.42;;;6.80;99.90;;;;;;5114600;28;20027;-73
2022/11/14 03:50:59;;;;;;;71.25;40.03;;;6.80;99.90;;;;;;5114544;28;20066;-73
2022/11/14 03:53:25;;;;;;;64.10;39.50;;;6.80;99.90;;;;;;5112809;28;20063;-74
2022/11/14 03:55:51;;;;;;;65.00;38.85;;;6.70;99.90;;;;;;5114408;28;20452;-74
2022/11/14 03:58:16;;;;;;;62.78;38.25;;;6.70;99.90;;;;;;5113860;28;20027;-74
2022/11/14 04:00:42;;;;;;;66.28;38.05;;;6.70;99.90;;;;;;5114131;28;20379;-74
2022/11/14 04:03:08;;;;;;;65.43;38.42;;;6.70;99.90;;;;;;5114041;28;20474;-74
2022/11/14 04:05:34;;;;;;;64.28;37.85;;;6.70;99.90;;;;;;5112430;28;20063;-73
2022/11/14 04:07:59;;;;;;;68.68;38.45;;;6.70;99.90;;;;;;5114202;28;20024;-74
2022/11/14 04:10:25;;;;;;;64.78;37.53;;;6.70;99.90;;;;;;5113586;28;20035;-73
2022/11/14 04:12:52;;;;;;;65.07;37.78;;;6.70;99.90;;;;;;5114209;28;20024;-74
2022/11/14 04:15:19;;;;;;;64.45;38.60;;;6.70;99.90;;;;;;5113409;28;20024;-74
2022/11/14 04:17:45;;;;;;;66.20;39.03;;;6.70;99.90;;;;;;5114257;28;20460;-74
2022/11/14 04:20:12;;;;;;;65.35;38.63;;;6.70;99.90;;;;;;5113533;28;20055;-74
2022/11/14 04:22:38;;;;;;;65.57;37.47;;;6.70;99.90;;;;;;5114402;28;20057;-74
2022/11/14 04:25:04;;;;;;;62.55;38.35;;;6.70;99.90;;;;;;5114237;28;20032;-74
2022/11/14 04:27:30;;;;;;;66.47;36.92;;;6.70;99.90;;;;;;5113374;28;20136;-74
2022/11/14 04:29:55;;;;;;;66.45;38.72;;;6.70;99.90;;;;;;5114506;28;20031;-74
2022/11/14 04:32:21;;;;;;;63.67;38.08;;;6.80;99.90;;;;;;5114523;28;20035;-75
2022/11/14 04:34:47;;;;;;;70.65;39.50;;;6.80;99.90;;;;;;5114411;28;20134;-74
2022/11/14 04:37:12;;;;;;;65.57;37.67;;;6.80;99.90;;;;;;5113521;28;20102;-74
2022/11/14 04:39:38;;;;;;;69.45;40.30;;;6.80;99.90;;;;;;5113290;28;20034;-74
2022/11/14 04:42:03;;;;;;;66.63;36.97;;;6.80;99.90;;;;;;5113500;28;20081;-74
2022/11/14 04:44:29;;;;;;;71.28;39.78;;;6.80;99.90;;;;;;5113443;28;20036;-74
2022/11/14 04:46:55;;;;;;;70.85;39.90;;;6.80;99.90;;;;;;5113709;28;20028;-75
2022/11/14 04:49:20;;;;;;;76.05;39.78;;;6.80;99.90;;;;;;5112763;28;20059;-74
2022/11/14 04:51:46;;;;;;;65.00;39.50;;;6.70;99.90;;;;;;5113337;28;20453;-75
2022/11/14 04:54:11;;;;;;;72.90;40.25;;;6.70;99.90;;;;;;5112812;28;20019;-75
2022/11/14 04:56:37;;;;;;;75.30;40.90;;;6.70;99.90;;;;;;5113437;28;20498;-74
2022/11/14 04:59:03;;;;;;;74.57;40.53;;;6.70;99.90;;;;;;5113246;28;20024;-75
2022/11/14 05:01:28;;;;;;;71.10;40.38;;;6.70;99.90;;;;;;5112955;28;20460;-74
2022/11/14 05:03:54;;;;;;;77.43;42.15;;;6.70;99.90;;;;;;5113265;28;20474;-74
2022/11/14 05:06:20;;;;;;;81.22;41.45;;;6.70;99.90;;;;;;5113005;28;20020;-74
2022/11/14 05:08:47;;;;;;;84.78;42.92;;;6.70;99.90;;;;;;5112881;28;20034;-75
2022/11/14 05:11:17;;;;;;;87.40;42.22;;;6.70;99.90;;;;;;5113052;28;20049;-75
2022/11/14 05:13:43;;;;;;;76.57;41.93;;;6.70;99.90;;;;;;5113041;28;20028;-75
2022/11/14 05:16:09;;;;;;;82.53;40.85;;;6.70;99.90;;;;;;5112933;28;20020;-75
2022/11/14 05:18:35;;;;;;;75.88;41.05;;;6.70;99.90;;;;;;5112529;28;20106;-75
2022/11/14 05:21:01;;;;;;;133.65;42.35;;;6.70;99.90;;;;;;5113254;28;20328;-74
2022/11/14 05:23:27;;;;;;;96.22;44.05;;;6.60;99.90;;;;;;5112062;28;20035;-75
2022/11/14 05:26:13;;;;;;;79.82;42.35;;;6.70;99.90;;;;;;5113182;28;20480;-75
2022/11/14 05:28:39;;;;;;;97.88;40.92;;;6.60;99.90;;;;;;5112238;27;20433;-74
2022/11/14 05:31:11;;;;;;;108.07;42.80;;;6.60;99.90;;;;;;5112435;27;20032;-75
2022/11/14 05:33:36;;;;;;;118.63;42.80;;;6.60;99.90;;;;;;5111865;28;20783;-74
2022/11/14 05:36:04;;;;;;;89.07;43.00;;;6.60;99.90;;;;;;5112358;28;20134;-74
2022/11/14 05:38:30;;;;;;;91.82;43.80;;;6.60;99.90;;;;;;5112027;28;20113;-75
2022/11/14 05:40:55;;;;;;;104.10;43.47;;;6.60;99.90;;;;;;5112501;28;20106;-75
2022/11/14 05:43:21;;;;;;;93.88;42.47;;;6.60;99.90;;;;;;5112172;28;20031;-75
2022/11/14 05:45:47;;;;;;;115.82;42.55;;;6.60;99.90;;;;;;5112501;28;20031;-74
2022/11/14 05:48:12;;;;;;;79.88;42.03;;;6.60;99.90;;;;;;5112487;28;20016;-75
2022/11/14 05:50:38;;;;;;;85.28;44.20;;;6.60;99.90;;;;;;5111759;28;20036;-74
2022/11/14 05:53:03;;;;;;;111.18;43.58;;;6.60;99.90;;;;;;5112335;28;20035;-74
2022/11/14 05:55:29;;;;;;;75.22;41.88;;;6.60;99.90;;;;;;5111856;28;20077;-74
2022/11/14 05:57:58;;;;;;;78.65;42.17;;;6.70;99.90;;;;;;5111831;28;20028;-74
2022/11/14 06:00:25;;;;;;;91.60;41.45;;;6.70;99.90;;;;;;5111750;28;20081;-74
2022/11/14 06:02:52;;;;;;;111.47;43.72;;;6.60;99.90;;;;;;5112365;28;20016;-74
2022/11/14 06:05:19;;;;;;;81.93;44.53;;;6.60;99.90;;;;;;5114034;28;20028;-73
2022/11/14 06:07:45;;;;;;;83.70;40.30;;;6.60;99.90;;;;;;5116494;28;20072;-73
2022/11/14 06:10:12;;;;;;;83.57;43.42;;;6.60;99.90;;;;;;5116357;28;20464;-75
2022/11/14 06:12:38;;;;;;;74.35;42.05;;;6.60;99.90;;;;;;5115993;28;20107;-74
2022/11/14 06:15:04;;;;;;;76.15;42.80;;;6.60;99.90;;;;;;5116393;28;20107;-75
2022/11/14 06:17:30;;;;;;;77.25;43.00;;;6.70;99.90;;;;;;5115554;28;20031;-74
2022/11/14 06:19:55;;;;;;;73.22;42.03;;;6.70;99.90;;;;;;5116464;28;20372;-74
2022/11/14 06:22:22;;;;;;;86.15;43.63;;;6.70;99.90;;;;;;5116088;28;20479;-74
2022/11/14 06:24:47;;;;;;;71.30;42.53;;;6.70;99.90;;;;;;5116272;28;20374;-74
2022/11/14 06:27:13;;;;;;;77.72;43.35;;;6.70;99.90;;;;;;5115872;28;20110;-73
2022/11/14 06:29:38;;;;;;;79.93;43.33;;;6.70;99.90;;;;;;5115143;28;20038;-74
2022/11/14 06:32:04;;;;;;;80.07;42.47;;;6.70;99.90;;;;;;5116030;28;20106;-74
2022/11/14 06:34:30;;;;;;;79.55;41.35;;;6.70;99.90;;;;;;5115343;28;20043;-74
2022/11/14 06:36:55;;;;;;;72.60;42.13;;;6.70;99.90;;;;;;5116030;28;20047;-75
2022/11/14 06:39:21;;;;;;;85.78;44.25;;;6.70;99.90;;;;;;5115223;28;20024;-75
2022/11/14 06:41:46;;;;;;;87.68;43.63;;;6.70;99.90;;;;;;5115925;28;20035;-75
2022/11/14 06:44:13;;;;;;;92.78;43.80;;;6.70;99.90;;;;;;5115556;28;20077;-75
2022/11/14 06:46:40;;;;;;;104.53;44.78;;;6.70;99.90;;;;;;5114751;28;20109;-74
2022/11/14 06:49:06;;;;;;;83.32;41.83;;;6.70;99.90;;;;;;5115785;28;20027;-74
2022/11/14 06:51:31;;;;;;;82.75;44.03;;;6.70;99.90;;;;;;5115018;28;20027;-75
2022/11/14 06:53:57;;;;;;;86.45;44.58;;;6.70;99.90;;;;;;5115697;28;20383;-75
2022/11/14 06:56:23;;;;;;;82.05;43.20;;;6.70;99.90;;;;;;5115248;28;20035;-75
2022/11/14 06:58:49;;;;;;;102.13;43.63;;;6.70;99.90;;;;;;5115578;28;20130;-75
2022/11/14 07:01:17;;;;;;;86.50;43.83;;;6.70;99.90;;;;;;5115494;28;20106;-75
2022/11/14 07:03:43;;;;;;;90.25;44.55;;;6.70;99.90;;;;;;5114640;28;20394;-75
2022/11/14 07:06:14;;;;;;;84.40;45.10;;;6.70;99.90;;;;;;5115153;28;20031;-75
2022/11/14 07:08:40;;;;;;;113.20;45.83;;;6.70;99.90;;;;;;5114960;28;20030;-75
2022/11/14 07:11:11;;;;;;;79.60;42.75;;;6.70;99.90;;;;;;5115203;28;20036;-75
2022/11/14 07:13:37;;;;;;;82.30;43.88;;;6.70;99.90;;;;;;5115085;28;20104;-75
2022/11/14 07:16:04;;;;;;;95.53;44.83;;;6.80;99.90;;;;;;5114441;28;20031;-75
2022/11/14 07:18:32;;;;;;;82.63;45.00;;;6.80;99.90;;;;;;5114147;28;20464;-74
2022/11/14 07:20:59;;;;;;;81.40;44.88;;;6.80;99.90;;;;;;5115187;28;20023;-74
2022/11/14 07:23:25;;;;;;;89.75;43.83;;;6.80;99.90;;;;;;5114552;28;20032;-74
2022/11/14 07:25:51;;;;;;;98.63;42.88;;;6.90;99.90;;;;;;5115011;28;20085;-75
2022/11/14 07:28:16;;;;;;;94.85;44.83;;;6.90;99.90;;;;;;5114930;28;20445;-75
2022/11/14 07:30:42;;;;;;;93.72;43.13;;;6.90;99.90;;;;;;5114453;28;20031;-74
2022/11/14 07:33:09;;;;;;;85.05;43.70;;;6.90;99.90;;;;;;5114909;28;20066;-75
2022/11/14 07:35:34;;;;;;;110.85;43.33;;;6.90;99.90;;;;;;5114585;28;20101;-74
2022/11/14 07:38:03;;;;;;;90.55;43.13;;;7.00;99.90;;;;;;5114637;28;20023;-75
2022/11/14 07:40:29;;;;;;;81.80;42.75;;;7.00;99.90;;;;;;5114334;28;20035;-74
2022/11/14 07:42:59;;;;;;;75.25;39.42;;;6.90;99.90;;;;;;5114539;28;20033;-75
2022/11/14 07:45:26;;;;;;;76.67;41.53;;;7.00;99.90;;;;;;5114165;28;20119;-74
2022/11/14 07:48:00;;;;;;;112.15;41.05;;;6.90;99.90;;;;;;5114548;28;20051;-74
2022/11/14 07:50:27;;;;;;;83.93;40.42;;;6.90;99.90;;;;;;5114231;28;20038;-75
2022/11/14 07:52:54;;;;;;;105.80;40.78;;;6.90;99.90;;;;;;5114145;28;20077;-75
2022/11/14 07:55:21;;;;;;;88.53;40.55;;;6.90;99.90;;;;;;5114622;28;20035;-74
2022/11/14 07:57:46;;;;;;;111.53;42.72;;;6.90;99.90;;;;;;5113301;28;20651;-75
2022/11/14 08:00:14;;;;;;;77.68;41.05;;;7.00;99.90;;;;;;5114257;28;20104;-75
2022/11/14 08:02:39;;;;;;;104.97;40.90;;;7.00;99.90;;;;;;5113889;28;20023;-74
2022/11/14 08:05:05;;;;;;;74.03;40.47;;;7.00;99.90;;;;;;5113759;28;20030;-75
2022/11/14 08:07:31;;;;;;;72.03;39.63;;;7.00;99.90;;;;;;5113392;28;20030;-75
2022/11/14 08:09:57;;;;;;;81.15;40.50;;;7.00;99.90;;;;;;5113869;28;20036;-74
2022/11/14 08:12:22;;;;;;;73.88;40.80;;;7.00;99.90;;;;;;5114157;28;20035;-74
2022/11/14 08:14:48;;;;;;;79.70;40.58;;;7.00;99.90;;;;;;5113824;28;20509;-74
2022/11/14 08:17:13;;;;;;;80.63;39.92;;;7.00;99.90;;;;;;5113687;28;20028;-74
2022/11/14 08:19:39;;;;;;;110.05;40.50;;;7.10;99.90;;;;;;5113685;28;20034;-74
2022/11/14 08:22:06;;;;;;;71.50;40.90;;;7.00;99.90;;;;;;5113881;28;20019;-74
2022/11/14 08:24:31;;;;;;;71.30;41.40;;;7.10;99.90;;;;;;5112930;28;20034;-74
2022/11/14 08:26:57;;;;;;;72.57;39.55;;;7.10;99.90;;;;;;5113747;28;20103;-74
2022/11/14 08:29:23;;;;;;;63.97;37.75;;;7.20;99.90;;;;;;5112723;28;20143;-74
2022/11/14 08:31:48;;;;;;;63.42;37.42;;;7.20;99.90;;;;;;5113389;28;20261;-74
2022/11/14 08:34:14;;;;;;;60.85;37.38;;;7.20;99.90;;;;;;5113534;28;20142;-74
2022/11/14 08:36:40;;;;;;;59.88;37.35;;;7.20;99.90;;;;;;5113284;28;20368;-74
2022/11/14 08:39:05;;;;;;;61.70;35.80;;;7.30;99.90;;;;;;5114028;28;20020;-74
2022/11/14 08:41:31;;;;;;;55.85;35.47;;;7.40;99.90;;;;;;5113215;28;20024;-74
2022/11/14 08:43:56;;;;;;;55.65;34.10;;;7.40;99.90;;;;;;5113290;28;20082;-74
2022/11/14 08:46:22;;;;;;;56.95;34.80;;;7.50;99.90;;;;;;5113754;28;20453;-74
2022/11/14 08:48:48;;;;;;;55.38;35.53;;;7.50;99.90;;;;;;5113256;28;20027;-75
2022/11/14 08:51:13;;;;;;;56.30;34.25;;;7.50;99.90;;;;;;5113450;28;20053;-75
2022/11/14 08:53:39;;;;;;;53.85;33.38;;;7.60;99.90;;;;;;5113062;28;20051;-74
2022/11/14 08:56:05;;;;;;;51.08;34.45;;;7.60;99.90;;;;;;5113073;28;20103;-74
2022/11/14 08:58:31;;;;;;;52.63;34.28;;;7.60;99.90;;;;;;5113034;28;20051;-74
2022/11/14 09:01:05;;;;;;;60.55;34.53;;;7.60;99.90;;;;;;5113526;28;20042;-74
2022/11/14 09:03:31;;;;;;;55.03;35.95;;;7.60;99.90;;;;;;5112980;28;20437;-74
2022/11/14 09:05:57;;;;;;;53.45;34.25;;;7.60;99.90;;;;;;5112954;28;20436;-75
2022/11/14 09:08:23;;;;;;;54.28;34.08;;;7.60;99.90;;;;;;5113372;28;20024;-75
2022/11/14 09:10:48;;;;;;;54.78;34.50;;;7.70;99.90;;;;;;5112694;28;20028;-75
2022/11/14 09:13:14;;;;;;;52.38;35.33;;;7.80;99.90;;;;;;5113312;28;20385;-75
2022/11/14 09:15:41;;;;;;;49.08;33.40;;;7.90;99.90;;;;;;5112595;28;20032;-75
2022/11/14 09:18:09;;;;;;;47.85;31.33;;;8.00;99.90;;;;;;5113186;28;20039;-75
2022/11/14 09:20:34;;;;;;;50.83;32.20;;;8.10;99.90;;;;;;5112635;28;20080;-75
2022/11/14 09:23:01;;;;;;;51.90;31.88;;;8.40;99.90;;;;;;5112953;28;20064;-75
2022/11/14 09:25:28;;;;;;;46.03;29.67;;;8.60;99.90;;;;;;5113014;28;20035;-75
2022/11/14 09:27:54;;;;;;;46.97;28.85;;;8.70;99.90;;;;;;5112336;28;20027;-75
2022/11/14 09:30:23;;;;;;;43.72;27.55;;;9.00;99.90;;;;;;5112528;28;20369;-75
2022/11/14 09:32:49;;;;;;;39.58;25.90;;;9.20;99.90;;;;;;5112500;28;20031;-75
2022/11/14 09:35:15;;;;;;;38.03;25.02;;;9.40;99.90;;;;;;5112927;28;20054;-75
2022/11/14 09:37:41;;;;;;;34.75;24.67;;;9.60;99.90;;;;;;5111076;28;20111;-74
2022/11/14 09:40:09;;;;;;;36.42;23.38;;;9.90;99.90;;;;;;5112202;28;20103;-75
2022/11/14 09:43:01;;;;;;;33.75;23.70;;;10.10;99.90;;;;;;5112009;28;20380;-73
2022/11/14 09:45:28;;;;;;;32.10;22.92;;;10.30;99.90;;;;;;5112817;28;20487;-74
2022/11/14 09:48:02;;;;;;;30.17;22.48;;;10.40;99.90;;;;;;5112251;28;20668;-75
2022/11/14 09:50:34;;;;;;;34.80;22.15;;;10.60;99.90;;;;;;5112877;28;20027;-75
2022/11/14 09:53:09;;;;;;;31.02;21.17;;;10.70;99.90;;;;;;5112712;28;20055;-75
2022/11/14 09:55:35;;;;;;;32.67;22.05;;;10.80;99.90;;;;;;5112312;28;20026;-74
2022/11/14 09:58:02;;;;;;;32.60;21.85;;;10.90;99.90;;;;;;5112322;28;20024;-75
2022/11/14 10:00:48;;;;;;;30.52;20.63;;;11.10;99.90;;;;;;5112174;28;20096;-75
2022/11/14 10:03:29;;;;;;;30.35;20.60;;;11.20;99.90;;;;;;5112419;28;20032;-75
2022/11/14 10:06:17;;;;;;;28.23;20.52;;;11.30;99.90;;;;;;5111952;28;20357;-75
2022/11/14 10:09:10;;;;;;;31.83;21.50;;;11.40;99.90;;;;;;5111920;28;20088;-75
2022/11/14 10:11:45;;;;;;;28.55;19.85;;;11.50;99.90;;;;;;5112468;28;20027;-75
2022/11/14 10:14:30;;;;;;;31.50;20.95;;;11.60;99.90;;;;;;5112225;28;20024;-75
2022/11/14 10:17:33;;;;;;;31.67;21.00;;;11.70;99.90;;;;;;5111920;28;20788;-76
2022/11/14 10:20:09;;;;;;;26.80;19.73;;;11.80;99.90;;;;;;5110737;28;20028;-76
2022/11/14 10:23:10;;;;;;;29.38;20.30;;;11.90;99.90;;;;;;5112335;28;20103;-76
2022/11/14 10:25:52;;;;;;;30.92;20.15;;;11.90;99.90;;;;;;5112410;28;20069;-76
2022/11/14 10:29:01;;;;;;;28.80;19.88;;;12.00;99.90;;;;;;5112249;28;20028;-75
2022/11/14 10:31:42;;;;;;;29.42;20.13;;;12.00;99.90;;;;;;5110780;28;20129;-76
2022/11/14 10:34:14;;;;;;;34.05;20.80;;;12.10;99.90;;;;;;5111949;28;20047;-76
2022/11/14 10:37:03;;;;;;;27.38;19.17;;;12.10;99.90;;;;;;5112213;28;20024;-76
2022/11/14 10:40:18;;;;;;;29.65;20.88;;;12.20;99.90;;;;;;5112307;28;20061;-76
2022/11/14 10:42:49;;;;;;;27.70;20.10;;;12.10;99.90;;;;;;5065194;28;20506;-74
2022/11/14 10:45:26;;;;;;;;;;;12.10;99.90;;;;;;5112708;28;20370;-74
2022/11/14 10:47:58;;;;;;;28.98;19.58;;;12.00;99.90;;;;;;5111895;28;19907;-76
2022/11/14 10:50:41;;;;;;;30.20;20.40;;;11.90;99.90;;;;;;5111885;28;20107;-75
2022/11/14 10:53:42;;;;;;;27.40;21.48;;;11.80;99.90;;;;;;5115514;28;20041;-75
2022/11/14 10:56:13;;;;;;;32.63;21.80;;;11.60;99.90;;;;;;5101772;28;20456;-76
2022/11/14 10:58:38;;;;;;;31.63;20.30;;;11.60;99.90;;;;;;5115563;28;20131;-76
2022/11/14 11:01:38;;;;;;;30.02;20.02;;;11.60;99.90;;;;;;5115311;28;20483;-76
2022/11/14 11:04:26;;;;;;;30.40;19.60;;;11.80;99.90;;;;;;5115021;28;20110;-76
2022/11/14 11:07:06;;;;;;;30.92;20.48;;;11.90;99.90;;;;;;5114838;28;20020;-75
2022/11/14 11:12:22;;;;;;;31.20;20.08;;;11.90;99.90;;;;;;5115437;28;20149;-75
2022/11/14 11:15:06;;;;;;;29.38;22.17;;;12.00;99.90;;;;;;5114808;28;20110;-74
2022/11/14 11:17:32;;;;;;;31.67;20.98;;;12.00;99.90;;;;;;5115073;28;20031;-75
2022/11/14 11:20:26;;;;;;;27.40;20.60;;;11.90;99.90;;;;;;5114627;28;20027;-75
2022/11/14 11:23:08;;;;;;;30.08;20.90;;;12.00;99.90;;;;;;5114737;28;20047;-74
2022/11/14 11:25:35;;;;;;;28.30;19.80;;;11.90;99.90;;;;;;5114963;28;20028;-74
2022/11/14 11:28:20;;;;;;;28.20;20.30;;;11.90;99.90;;;;;;5114234;28;20221;-75
2022/11/14 11:30:58;;;;;;;28.48;20.23;;;12.00;99.90;;;;;;5114459;28;20349;-74
2022/11/14 11:33:25;;;;;;;26.67;20.15;;;11.90;99.90;;;;;;5114765;28;20106;-75
2022/11/14 11:35:59;;;;;;;27.20;19.63;;;11.80;99.90;;;;;;5114108;28;20386;-74
2022/11/14 11:38:27;;;;;;;27.58;20.73;;;11.80;99.90;;;;;;5114610;28;20034;-75
2022/11/14 11:41:03;;;;;;;26.25;18.85;;;11.90;99.90;;;;;;5114258;28;20077;-75
2022/11/14 11:43:38;;;;;;;31.75;20.50;;;11.70;99.90;;;;;;5114482;27;20028;-75
2022/11/14 11:46:11;;;;;;;27.63;20.40;;;11.60;99.90;;;;;;5114174;28;20204;-75
2022/11/14 11:48:38;;;;;;;30.52;19.98;;;11.60;99.90;;;;;;5114215;28;20038;-75
2022/11/14 11:51:05;;;;;;;27.85;19.40;;;11.60;99.90;;;;;;5113909;28;20020;-75
2022/11/14 11:53:38;;;;;;;27.15;19.92;;;11.60;99.90;;;;;;5114513;28;20057;-75
2022/11/14 11:56:12;;;;;;;26.92;19.58;;;11.50;99.90;;;;;;5114443;28;20031;-75
2022/11/14 11:58:48;;;;;;;29.38;19.08;;;11.60;99.90;;;;;;5114555;28;20055;-75
2022/11/14 12:01:14;;;;;;;26.23;19.13;;;11.60;99.90;;;;;;5113932;28;20030;-75
2022/11/14 12:03:51;;;;;;;29.45;20.08;;;11.60;99.90;;;;;;5114242;28;20019;-75
2022/11/14 12:06:23;;;;;;;26.23;17.92;;;11.70;99.90;;;;;;5113438;28;20054;-75
2022/11/14 12:08:52;;;;;;;26.80;17.50;;;11.70;99.90;;;;;;5113567;28;20042;-75
2022/11/14 12:11:20;;;;;;;25.38;18.20;;;11.60;99.90;;;;;;5113855;28;20050;-75
2022/11/14 12:14:09;;;;;;;28.08;19.05;;;11.60;99.90;;;;;;5113519;28;20483;-74
2022/11/14 12:17:21;;;;;;;28.17;20.70;;;11.50;99.90;;;;;;5083246;28;20074;-75
2022/11/14 12:20:12;;;;;;;25.70;18.92;;;11.40;99.90;;;;;;5083818;28;20447;-75
2022/11/14 12:22:40;;;;;;;31.65;18.60;;;11.30;99.90;;;;;;5113637;28;20031;-75
2022/11/14 12:25:25;;;;;;;29.30;19.83;;;11.40;99.90;;;;;;5113410;28;20020;-75
2022/11/14 12:28:11;;;;;;;32.00;20.67;;;11.40;99.90;;;;;;5113296;28;20076;-75
2022/11/14 12:30:40;;;;;;;28.38;19.33;;;11.40;99.90;;;;;;5113737;28;20063;-75
2022/11/14 12:33:23;;;;;;;27.23;18.90;;;11.40;99.90;;;;;;5113248;28;20142;-75
2022/11/14 12:35:56;;;;;;;29.45;19.58;;;11.50;99.90;;;;;;5112689;27;20039;-74
2022/11/14 12:38:23;;;;;;;30.08;20.08;;;11.50;99.90;;;;;;5113898;28;20031;-75
2022/11/14 12:40:53;;;;;;;30.52;20.10;;;11.50;99.90;;;;;;5113037;28;20031;-74
2022/11/14 12:43:31;;;;;;;30.33;20.07;;;11.60;99.90;;;;;;5113847;28;20375;-75
2022/11/14 12:45:59;;;;;;;30.40;20.30;;;11.50;99.90;;;;;;5112954;28;20019;-74
2022/11/14 12:48:24;;;;;;;31.20;21.50;;;11.50;99.90;;;;;;5113367;28;20062;-75